Apalachia Observed Data For Previous 48 Hours

Caption
Day and Hour Reservoir Elevation (behind dam)* Tailwater Elevation (below dam)* Average Hourly Discharge*
4/23/2017 2 AM EDT 1,277.34 838.09 756
4/23/2017 3 AM EDT 1,277.38 838.26 30
4/23/2017 4 AM EDT 1,277.45 838.38 30
4/23/2017 5 AM EDT 1,277.42 838.49 30
4/23/2017 6 AM EDT 1,277.32 838.59 763
4/23/2017 7 AM EDT 1,277.39 838.59 30
4/23/2017 8 AM EDT 1,277.48 838.60 30
4/23/2017 9 AM EDT 1,277.50 838.77 42
4/23/2017 10 AM EDT 1,277.38 838.71 755
4/23/2017 11 AM EDT 1,277.47 838.77 30
4/23/2017 12 PM EDT 1,277.51 838.86 30
4/23/2017 1 PM EDT 1,277.50 838.97 32
4/23/2017 2 PM EDT 1,277.45 839.00 772
4/23/2017 3 PM EDT 1,277.50 839.04 30
4/23/2017 4 PM EDT 1,277.57 839.12 30
4/23/2017 5 PM EDT 1,277.59 839.33 43
4/23/2017 6 PM EDT 1,277.54 839.48 753
4/23/2017 7 PM EDT 1,277.59 839.73 30
4/23/2017 8 PM EDT 1,277.69 839.94 30
4/23/2017 9 PM EDT 1,277.70 840.06 42
4/23/2017 10 PM EDT 1,277.66 840.04 757
4/23/2017 11 PM EDT 1,277.71 840.01 30
4/24/2017 12 AM EDT 1,277.76 839.97 30
4/24/2017 1 AM EDT 1,277.77 839.94 33
4/24/2017 2 AM EDT 1,277.70 839.86 774
4/24/2017 3 AM EDT 1,277.74 839.78 30
4/24/2017 4 AM EDT 1,277.82 839.69 30
4/24/2017 5 AM EDT 1,277.81 839.62 37
4/24/2017 6 AM EDT 1,277.75 839.51 774
4/24/2017 7 AM EDT 1,277.80 839.42 30
4/24/2017 8 AM EDT 1,277.84 839.34 30
4/24/2017 9 AM EDT 1,277.86 839.35 44
4/24/2017 10 AM EDT 1,277.77 839.20 756
4/24/2017 11 AM EDT 1,277.81 839.13 30
4/24/2017 12 PM EDT 1,277.86 839.07 30
4/24/2017 1 PM EDT 1,277.88 839.13 46
4/24/2017 2 PM EDT 1,277.80 838.96 754
4/24/2017 3 PM EDT 1,277.83 838.91 30
4/24/2017 4 PM EDT 1,277.89 838.86 30
4/24/2017 5 PM EDT 1,277.88 838.90 41
4/24/2017 6 PM EDT 1,277.80 838.78 772
4/24/2017 7 PM EDT 1,277.83 838.74 30
4/24/2017 8 PM EDT 1,277.86 838.70 30
4/24/2017 9 PM EDT 1,277.88 838.83 51
4/24/2017 10 PM EDT 1,277.80 838.64 754
4/24/2017 11 PM EDT 1,277.83 838.60 30
4/25/2017 12 AM EDT 1,277.89 838.58 30
4/25/2017 1 AM EDT 1,277.89 838.73 52
4/25/2017 2 AM EDT 1,277.81 838.52 756
4/25/2017 3 AM EDT 1,277.85 838.49 30
4/25/2017 4 AM EDT 1,277.88 838.47 30

Elevations are in feet above sea level. Discharges are in cubic feet per second and are reported at the end of the hour.